ROMMA est une association bénévole à but non lucratif. Votre soutien est indispensable : ADHERER à ROMMA ou FAIRE un DON

Granges-lès-Beaumont - (26, Drôme)

Drôme des Collines (155 m)   Longitude: 04°58'E   Latitude: 45°03'N Station partenaire n°123
 

Détail journalier du     <<     >>

Température Precipitation Humidité Pression Vent Dir Rafale Dir. rafale Ensol.
Heure (°C) (mm) (%) (hPa) (km/h) (km/h) (min)
01:00 3.8080102319NNO32NO0
02:00 3.6081102417NNO31N0
03:00 3.3081102419NNO34NNO0
04:00 3.1082102416NNO31N0
05:00 2.9082102416NNO29N0
06:00 2.8082102416NNO29NNO0
07:00 2.8081102417N26N0
08:00 2.8082102516N27N0
09:00 2.9082102514NNO24N0
10:00 3.2080102515NNO26NNO0
11:00 3.7079102515NNO27NNO0
12:00 4.3077102513NO24NO0
13:00 4.5077102514NO24NNO0
14:00 5.0076102415NO24NNO0
15:00 5.2076102411NNO21NNO0
16:00 5.2077102311NO19NNO0
17:00 5.1077102312NO21NO0
18:00 4.9077102312NO23NO0
19:00 4.6078102313NO26ONO0
20:00 3.8079102412NNO21NNO0
21:00 2.908210239NNO18NO0
22:00 2.308410238NO15NNO0
23:00 2.108410239NO15NO0
minuit 1.308710235N13NNO0

Graphique du 03-12-2019

 

Serveur OMMA